Hovedside
METAR-TAF:

METAR-TAF

Lufthavner :

Beirut, Libanon

breddegrad: 33-49N, lengdegrad: 035-29E, høyde over havet: 29 m

Gjeldene værobservasjon

Denne rapporten ble laget for 5 timer og 1 minutter siden, klokken 23:00 UTC
Vind 5 kt fra Sør-sørøst, skiftende mellom Øst-sørøst og Sør-sørvest
Temperatur 27°C
Luftfuktighet 66%
Trykk 1013 hPa
Sikt: 8000 m

METAR: OLBA 192300Z 15005KT 120V200 8000 NSC 27/20 Q1013 NOSIG

Tid: 07:01 (04:01 UTC)

Varsel

Denne rapporten ble laget for 6 timer og 1 minutter siden, klokken 22:00 UTC
Varsel gyldig fra 20. klokken 00 UTC til 21. klokken 06 UTC
Vind 5 kt fra skiftende retning
Sikt: 8000 m
Få skyer i en høyde av 3000 ft
Blir
fra 20. klokken 08 UTC til 20. klokken 10 UTC
Vind 13 kt fra Sørvest
Sikt: 8000 m
Spredte skyer i en høyde av 2600 ft
Blir
fra 20. klokken 20 UTC til 20. klokken 22 UTC
Vind 5 kt fra skiftende retning

TAF: OLBA 192200Z 2000/2106 VRB05KT 8000 FEW030 BECMG 2008/2010 23013KT 8000 SCT026 BECMG 2020/2022 VRB05KT

Værobservasjoner og værvarsel for over 4000 flyplasser (METAR- og TAF-rapporter).

Tilgjengelige stasjoner er representert av de røde og gule prikkene på kartet.

Hold musepekeren over prikken for å se navnet på stasjonen.

Klikk så for å se værobservasjoner og -varsler.

For å forandre kartet kan du klikke på den grønne knappen med svart kryss for å zoome inn, på den grønne knappen med strek for å zoome ut, eller på de grønne pilene for å se tilstøtende kart.


METAR-TAF: